Time;durP1;ratioP1;P1;durP2;ratioP2;P2;SDS_P1;SDS_P2;PMS_P1;PMS_P2;Temp;Humidity;BMP_temperature;BMP_pressure;BME280_temperature;BME280_humidity;BME280_pressure;Samples;Min_cycle;Max_cycle;Signal;HPM_P1;HPM_P2
2023/04/07 00:00:54;;;;;;;21.80;12.73;;;7.30;99.90;;;;;;5094014;28;20027;-76
2023/04/07 00:03:20;;;;;;;22.77;11.73;;;7.30;99.90;;;;;;5111301;28;20495;-77
2023/04/07 00:05:46;;;;;;;25.25;13.02;;;7.30;99.90;;;;;;5094157;28;20040;-76
2023/04/07 00:08:12;;;;;;;18.75;12.07;;;7.30;99.90;;;;;;5093837;28;20031;-76
2023/04/07 00:10:38;;;;;;;23.70;13.35;;;7.40;99.90;;;;;;5110918;28;20100;-77
2023/04/07 00:13:04;;;;;;;25.75;14.02;;;7.30;99.90;;;;;;5093826;28;20126;-76
2023/04/07 00:15:29;;;;;;;25.55;14.27;;;7.30;99.90;;;;;;5076994;28;20147;-76
2023/04/07 00:17:55;;;;;;;25.17;13.48;;;7.20;99.90;;;;;;5093750;28;20503;-76
2023/04/07 00:20:21;;;;;;;26.92;14.75;;;7.30;99.90;;;;;;5093879;28;20050;-76
2023/04/07 00:22:47;;;;;;;25.77;14.90;;;7.30;99.90;;;;;;5111081;28;20039;-76
2023/04/07 00:25:13;;;;;;;27.97;15.00;;;7.30;99.90;;;;;;5093652;28;20118;-76
2023/04/07 00:27:39;;;;;;;29.08;15.10;;;7.30;99.90;;;;;;5110749;28;20282;-77
2023/04/07 00:30:05;;;;;;;26.92;13.85;;;7.30;99.90;;;;;;5093375;28;20036;-76
2023/04/07 00:32:31;;;;;;;;;;;7.30;99.90;;;;;;5094410;28;20229;-76
2023/04/07 00:34:56;;;;;;;27.80;15.27;;;7.30;99.90;;;;;;5109701;28;20082;-76
2023/04/07 00:37:24;;;;;;;27.83;15.10;;;7.20;99.90;;;;;;5076937;28;20050;-76
2023/04/07 00:39:50;;;;;;;28.70;14.98;;;7.30;99.90;;;;;;5110650;28;20282;-76
2023/04/07 00:42:16;;;;;;;29.70;16.10;;;7.30;99.90;;;;;;5093391;28;20131;-76
2023/04/07 00:44:42;;;;;;;28.70;14.57;;;7.30;99.90;;;;;;5093086;28;20039;-76
2023/04/07 00:47:07;;;;;;;29.77;16.37;;;7.20;99.90;;;;;;5093136;28;20059;-76
2023/04/07 00:49:33;;;;;;;30.85;15.77;;;7.20;99.90;;;;;;5110852;28;20074;-76
2023/04/07 00:52:00;;;;;;;26.52;13.52;;;7.20;99.90;;;;;;5110450;28;20150;-76
2023/04/07 00:54:26;;;;;;;31.63;15.95;;;7.20;99.90;;;;;;5110281;28;20122;-76
2023/04/07 00:56:52;;;;;;;28.17;15.13;;;7.20;99.90;;;;;;5093120;28;20085;-76
2023/04/07 00:59:18;;;;;;;31.02;15.80;;;7.20;99.90;;;;;;5110041;28;20027;-76
2023/04/07 01:02:13;;;;;;;30.15;15.68;;;7.20;99.90;;;;;;5093361;28;20034;-76
2023/04/07 01:04:51;;;;;;;29.95;16.20;;;7.20;99.90;;;;;;5093272;28;20463;-76
2023/04/07 01:07:23;;;;;;;31.73;16.65;;;7.20;99.90;;;;;;5109577;28;20251;-76
2023/04/07 01:10:02;;;;;;;30.95;15.90;;;7.20;99.90;;;;;;5109977;28;20036;-76
2023/04/07 01:12:46;;;;;;;30.48;16.05;;;7.20;99.90;;;;;;5109821;28;20110;-76
2023/04/07 01:15:13;;;;;;;32.15;15.65;;;7.20;99.90;;;;;;5092530;28;20040;-76
2023/04/07 01:17:44;;;;;;;32.50;16.55;;;7.20;99.90;;;;;;5092931;28;20035;-76
2023/04/07 01:20:13;;;;;;;29.17;15.65;;;7.20;99.90;;;;;;5109308;28;20119;-76
2023/04/07 01:22:51;;;;;;;34.20;16.73;;;7.10;99.90;;;;;;5092546;28;20031;-76
2023/04/07 01:25:35;;;;;;;34.60;16.50;;;7.10;99.90;;;;;;5109356;28;20046;-76
2023/04/07 01:28:02;;;;;;;32.25;17.25;;;7.20;99.90;;;;;;5109437;28;20043;-76
2023/04/07 01:30:30;;;;;;;31.55;16.77;;;7.10;99.90;;;;;;5109614;28;20039;-76
2023/04/07 01:32:58;;;;;;;29.73;16.00;;;7.10;99.90;;;;;;5109870;28;20158;-76
2023/04/07 01:35:28;;;;;;;30.00;15.90;;;7.10;99.90;;;;;;5092408;28;20044;-76
2023/04/07 01:37:54;;;;;;;34.42;17.27;;;7.10;99.90;;;;;;5109873;28;20479;-76
2023/04/07 01:40:21;;;;;;;32.63;17.33;;;7.10;99.90;;;;;;5109240;28;20044;-76
2023/04/07 01:42:48;;;;;;;28.95;14.82;;;7.10;99.90;;;;;;5106974;28;20043;-76
2023/04/07 01:45:17;;;;;;;33.63;16.73;;;7.20;99.90;;;;;;5075177;28;20035;-76
2023/04/07 01:47:43;;;;;;;30.98;15.73;;;7.20;99.90;;;;;;5109334;28;20039;-76
2023/04/07 01:50:10;;;;;;;;;;;7.10;99.90;;;;;;5109488;28;20035;-76
2023/04/07 01:52:36;;;;;;;32.47;16.57;;;7.10;99.90;;;;;;5108836;28;19915;-76
2023/04/07 01:55:04;;;;;;;30.83;16.27;;;7.10;99.90;;;;;;5091815;28;20032;-76
2023/04/07 01:57:30;;;;;;;32.33;16.27;;;7.10;99.90;;;;;;5108583;28;20451;-76
2023/04/07 01:59:55;;;;;;;32.72;17.08;;;7.10;99.90;;;;;;5109247;28;20067;-76
2023/04/07 02:02:21;;;;;;;33.53;16.63;;;7.10;99.90;;;;;;5108730;28;20145;-76
2023/04/07 02:04:57;;;;;;;29.45;16.02;;;7.10;99.90;;;;;;5109375;28;20277;-76
2023/04/07 02:07:30;;;;;;;27.33;15.48;;;7.10;99.90;;;;;;5108524;28;20052;-76
2023/04/07 02:10:01;;;;;;;32.72;15.90;;;7.10;99.90;;;;;;5109239;28;20479;-76
2023/04/07 02:12:29;;;;;;;34.10;16.70;;;7.10;99.90;;;;;;5091512;28;20047;-76
2023/04/07 02:14:55;;;;;;;35.65;17.38;;;7.10;99.90;;;;;;5074413;28;20039;-76
2023/04/07 02:17:24;;;;;;;34.10;17.10;;;7.10;99.90;;;;;;5108225;28;20130;-75
2023/04/07 02:19:51;;;;;;;32.60;17.27;;;7.10;99.90;;;;;;5108616;28;20039;-77
2023/04/07 02:22:18;;;;;;;34.90;18.23;;;7.10;99.90;;;;;;5091727;28;20476;-76
2023/04/07 02:24:43;;;;;;;32.00;16.45;;;7.10;99.90;;;;;;5108553;28;20027;-76
2023/04/07 02:27:09;;;;;;;34.65;16.90;;;7.10;99.90;;;;;;5108239;28;20047;-76
2023/04/07 02:29:35;;;;;;;34.42;17.50;;;7.20;99.90;;;;;;5107652;28;20115;-76
2023/04/07 02:32:01;;;;;;;34.87;17.27;;;7.10;99.90;;;;;;5107868;28;20510;-76
2023/04/07 02:34:26;;;;;;;33.40;17.25;;;7.10;99.90;;;;;;5090867;28;20309;-76
2023/04/07 02:36:52;;;;;;;33.63;16.30;;;7.10;99.90;;;;;;5091461;28;20064;-75
2023/04/07 02:39:18;;;;;;;35.63;17.37;;;7.10;99.90;;;;;;5107998;28;20282;-75
2023/04/07 02:41:43;;;;;;;36.78;17.02;;;7.10;99.90;;;;;;5074526;28;20116;-76
2023/04/07 02:44:09;;;;;;;34.47;16.83;;;7.10;99.90;;;;;;5091172;28;20043;-76
2023/04/07 02:46:35;;;;;;;36.72;17.17;;;7.10;99.90;;;;;;5091471;28;20039;-76
2023/04/07 02:49:00;;;;;;;35.07;16.40;;;7.10;99.90;;;;;;5108348;28;20046;-76
2023/04/07 02:51:26;;;;;;;37.17;17.73;;;7.10;99.90;;;;;;5090542;28;20039;-76
2023/04/07 02:53:52;;;;;;;30.48;15.25;;;7.10;99.90;;;;;;5074195;28;20081;-75
2023/04/07 02:56:18;;;;;;;30.63;16.10;;;7.10;99.90;;;;;;5107761;28;20039;-75
2023/04/07 02:58:43;;;;;;;30.50;16.27;;;7.10;99.90;;;;;;5091090;28;20031;-76
2023/04/07 03:01:09;;;;;;;29.97;17.00;;;7.10;99.90;;;;;;5107326;28;20322;-76
2023/04/07 03:03:35;;;;;;;37.90;18.33;;;7.10;99.90;;;;;;5108584;28;20042;-76
2023/04/07 03:06:00;;;;;;;36.03;17.60;;;7.10;99.90;;;;;;5091476;28;20055;-75
2023/04/07 03:08:26;;;;;;;35.33;18.33;;;7.10;99.90;;;;;;5093271;28;20043;-76
2023/04/07 03:10:52;;;;;;;37.28;17.80;;;7.10;99.90;;;;;;5095318;28;20066;-75
2023/04/07 03:13:20;;;;;;;37.90;17.63;;;7.10;99.90;;;;;;5112121;28;20514;-76
2023/04/07 03:15:46;;;;;;;36.42;18.17;;;7.10;99.90;;;;;;5112345;28;20555;-76
2023/04/07 03:18:12;;;;;;;33.08;17.20;;;7.10;99.90;;;;;;5095061;28;20096;-76
2023/04/07 03:20:40;;;;;;;35.63;17.98;;;7.10;99.90;;;;;;5112585;28;20035;-76
2023/04/07 03:23:06;;;;;;;35.20;17.13;;;8.00;99.90;;;;;;5079214;28;20081;-76
2023/04/07 03:25:32;;;;;;;36.25;17.85;;;7.10;99.90;;;;;;5078311;28;20039;-76
2023/04/07 03:27:58;;;;;;;27.35;16.02;;;7.10;99.90;;;;;;5111822;28;20131;-75
2023/04/07 03:30:24;;;;;;;34.70;17.80;;;7.10;99.90;;;;;;5094922;28;20074;-76
2023/04/07 03:32:50;;;;;;;33.50;17.13;;;7.10;99.90;;;;;;5111975;28;20527;-76
2023/04/07 03:35:16;;;;;;;31.80;16.25;;;7.10;99.90;;;;;;5094627;28;20059;-76
2023/04/07 03:37:41;;;;;;;33.15;17.13;;;7.10;99.90;;;;;;5111999;28;20050;-76
2023/04/07 03:40:07;;;;;;;32.43;16.70;;;7.10;99.90;;;;;;5111685;28;20048;-76
2023/04/07 03:42:33;;;;;;;30.13;16.60;;;7.10;99.90;;;;;;5111210;28;20309;-76
2023/04/07 03:44:59;;;;;;;32.45;16.88;;;7.10;99.90;;;;;;5094789;28;20082;-76
2023/04/07 03:47:25;;;;;;;35.38;18.45;;;7.10;99.90;;;;;;5111409;28;20048;-76
2023/04/07 03:49:50;;;;;;;38.15;17.25;;;7.10;99.90;;;;;;5111981;28;20662;-76
2023/04/07 03:52:16;;;;;;;31.77;16.02;;;7.10;99.90;;;;;;5094542;28;20055;-76
2023/04/07 03:54:42;;;;;;;34.47;16.45;;;7.10;99.90;;;;;;5111368;28;20035;-77
2023/04/07 03:57:08;;;;;;;31.55;15.38;;;7.10;99.90;;;;;;5094618;28;20396;-77
2023/04/07 03:59:34;;;;;;;33.40;16.63;;;7.10;99.90;;;;;;5094138;28;20037;-77
2023/04/07 04:02:05;;;;;;;32.20;17.25;;;7.10;99.90;;;;;;5094472;28;20134;-76
2023/04/07 04:04:31;;;;;;;36.90;18.40;;;7.10;99.90;;;;;;5059042;28;20108;-77
2023/04/07 04:06:57;;;;;;;35.90;18.27;;;7.10;99.90;;;;;;5094700;28;20479;-76
2023/04/07 04:09:23;;;;;;;33.23;16.67;;;7.00;99.90;;;;;;5110885;28;20288;-76
2023/04/07 04:11:48;;;;;;;35.97;18.07;;;7.10;99.90;;;;;;5111237;28;20304;-76
2023/04/07 04:14:14;;;;;;;36.30;17.35;;;7.10;99.90;;;;;;5110952;28;20032;-78
2023/04/07 04:16:40;;;;;;;36.15;16.67;;;7.10;99.90;;;;;;5094443;28;20035;-77
2023/04/07 04:19:06;;;;;;;36.43;18.73;;;7.10;99.90;;;;;;5110291;28;20471;-77
2023/04/07 04:21:31;;;;;;;39.77;18.70;;;7.00;99.90;;;;;;5093898;28;20288;-77
2023/04/07 04:23:57;;;;;;;35.60;17.30;;;7.00;99.90;;;;;;5093978;28;20274;-77
2023/04/07 04:26:24;;;;;;;33.43;16.00;;;7.00;99.90;;;;;;5093711;28;20274;-76
2023/04/07 04:28:51;;;;;;;33.05;16.38;;;7.10;99.90;;;;;;5093974;28;20039;-77
2023/04/07 04:31:17;;;;;;;39.05;16.63;;;7.00;99.90;;;;;;5093667;28;20039;-77
2023/04/07 04:33:43;;;;;;;36.83;18.27;;;7.00;99.90;;;;;;5111322;28;20142;-77
2023/04/07 04:36:08;;;;;;;37.00;17.95;;;6.90;99.90;;;;;;5077121;28;20047;-77
2023/04/07 04:38:34;;;;;;;33.47;17.33;;;7.00;99.90;;;;;;5110173;28;20077;-78
2023/04/07 04:41:00;;;;;;;34.00;16.48;;;6.90;99.90;;;;;;5094263;28;20330;-84
2023/04/07 04:43:25;;;;;;;37.85;17.67;;;7.00;99.90;;;;;;5094892;28;20034;-82
2023/04/07 04:45:51;;;;;;;31.33;15.67;;;7.00;99.90;;;;;;5111332;28;20035;-83
2023/04/07 04:48:17;;;;;;;33.30;16.65;;;6.90;99.90;;;;;;5094494;28;20567;-83
2023/04/07 04:50:43;;;;;;;33.00;16.98;;;6.90;99.90;;;;;;5111601;28;20040;-83
2023/04/07 04:53:09;;;;;;;32.50;16.17;;;6.90;99.90;;;;;;5094462;28;20046;-82
2023/04/07 04:55:35;;;;;;;31.65;15.70;;;6.90;99.90;;;;;;5093776;28;20352;-82
2023/04/07 04:58:01;;;;;;;27.67;14.93;;;7.00;99.90;;;;;;5111397;28;20032;-83
2023/04/07 05:00:26;;;;;;;30.58;15.15;;;6.90;99.90;;;;;;5094017;28;20380;-82
2023/04/07 05:02:53;;;;;;;32.03;15.57;;;6.90;99.90;;;;;;5111403;28;20088;-82
2023/04/07 05:05:19;;;;;;;31.00;16.20;;;6.90;99.90;;;;;;5110874;28;20290;-82
2023/04/07 05:07:48;;;;;;;25.10;13.52;;;6.90;99.90;;;;;;5091277;28;20040;-82
2023/04/07 05:10:13;;;;;;;29.17;16.10;;;7.00;99.90;;;;;;5111300;28;20051;-82
2023/04/07 05:12:39;;;;;;;30.70;15.23;;;7.00;99.90;;;;;;5110564;28;20096;-82
2023/04/07 05:15:05;;;;;;;24.55;13.80;;;7.00;99.90;;;;;;5110698;28;20047;-82
2023/04/07 05:17:31;;;;;;;30.13;15.25;;;7.00;99.90;;;;;;5110434;28;20095;-82
2023/04/07 05:19:57;;;;;;;29.77;15.13;;;6.90;99.90;;;;;;5111299;28;20494;-82
2023/04/07 05:22:22;;;;;;;30.37;16.77;;;7.00;99.90;;;;;;5094061;28;20285;-82
2023/04/07 05:24:48;;;;;;;27.23;14.45;;;7.10;99.90;;;;;;5110618;28;20035;-82
2023/04/07 05:27:14;;;;;;;28.05;13.52;;;7.00;99.90;;;;;;5093701;28;20027;-82
2023/04/07 05:29:40;;;;;;;27.77;14.57;;;7.00;99.90;;;;;;5110200;28;20039;-82
2023/04/07 05:32:05;;;;;;;27.90;13.65;;;7.00;99.90;;;;;;5110675;28;20085;-82
2023/04/07 05:34:31;;;;;;;26.65;14.27;;;7.00;99.90;;;;;;5093271;28;20032;-83
2023/04/07 05:36:57;;;;;;;30.13;14.83;;;7.20;99.90;;;;;;5110168;28;20047;-82
2023/04/07 05:39:23;;;;;;;28.13;13.98;;;7.00;99.90;;;;;;5109817;28;20285;-83
2023/04/07 05:41:48;;;;;;;28.80;14.50;;;7.00;99.90;;;;;;5110043;28;20035;-82
2023/04/07 05:44:14;;;;;;;28.23;14.98;;;7.00;99.90;;;;;;5076388;28;20052;-83
2023/04/07 05:46:40;;;;;;;28.02;15.32;;;7.00;99.90;;;;;;5093094;28;20067;-82
2023/04/07 05:49:06;;;;;;;23.17;12.80;;;7.10;99.90;;;;;;5110001;28;20127;-82
2023/04/07 05:51:32;;;;;;;30.05;16.08;;;7.00;99.90;;;;;;5092970;28;20285;-82
2023/04/07 05:54:02;;;;;;;26.40;14.68;;;7.00;99.90;;;;;;5093097;28;20036;-82
2023/04/07 05:56:28;;;;;;;26.20;13.90;;;7.10;99.90;;;;;;5109572;28;20525;-82
2023/04/07 05:58:53;;;;;;;27.63;14.03;;;7.10;99.90;;;;;;5092954;28;20043;-82
2023/04/07 06:01:20;;;;;;;23.38;13.38;;;7.10;99.90;;;;;;5092744;28;20281;-83
2023/04/07 06:03:45;;;;;;;27.40;14.40;;;7.10;99.90;;;;;;5109960;28;20070;-82
2023/04/07 06:06:11;;;;;;;24.87;13.47;;;7.10;99.90;;;;;;5109713;28;20067;-82
2023/04/07 06:08:37;;;;;;;25.47;14.27;;;7.20;99.90;;;;;;5109306;28;20352;-82
2023/04/07 06:11:02;;;;;;;25.25;13.70;;;7.10;99.90;;;;;;5092780;28;20047;-82
2023/04/07 06:13:28;;;;;;;27.35;14.13;;;7.10;99.90;;;;;;5073273;28;20246;-82
2023/04/07 06:15:57;;;;;;;26.93;14.47;;;7.10;99.90;;;;;;5092809;28;20122;-82
2023/04/07 06:18:23;;;;;;;24.90;13.23;;;7.10;99.90;;;;;;5092797;28;20039;-82
2023/04/07 06:20:49;;;;;;;25.08;14.18;;;7.20;99.90;;;;;;5109780;28;20114;-82
2023/04/07 06:23:14;;;;;;;28.20;14.88;;;7.20;99.90;;;;;;5109786;28;20077;-82
2023/04/07 06:25:40;;;;;;;24.30;13.75;;;7.20;99.90;;;;;;5109719;28;20046;-82
2023/04/07 06:28:06;;;;;;;24.83;14.48;;;7.20;99.90;;;;;;5092578;28;20118;-82
2023/04/07 06:30:32;;;;;;;22.58;11.52;;;7.20;99.90;;;;;;5109125;28;20054;-82
2023/04/07 06:32:58;;;;;;;;;;;7.20;99.90;;;;;;5109997;28;20035;-82
2023/04/07 06:35:25;;;;;;;25.42;13.18;;;7.20;99.90;;;;;;5108885;28;19964;-82
2023/04/07 06:37:51;;;;;;;24.25;12.88;;;7.20;99.90;;;;;;5073906;28;20114;-82
2023/04/07 06:40:17;;;;;;;24.65;14.30;;;7.30;99.90;;;;;;5109357;28;20184;-82
2023/04/07 06:42:43;;;;;;;24.90;13.65;;;7.30;99.90;;;;;;5108555;28;20062;-82
2023/04/07 06:45:09;;;;;;;27.70;12.70;;;7.30;99.90;;;;;;5109531;28;20146;-82
2023/04/07 06:47:35;;;;;;;21.58;12.27;;;7.30;99.90;;;;;;5075204;28;20039;-82
2023/04/07 06:50:00;;;;;;;24.93;13.23;;;7.30;99.90;;;;;;5092455;28;20410;-82
2023/04/07 06:52:26;;;;;;;23.85;12.60;;;7.40;99.90;;;;;;5108952;28;20838;-82
2023/04/07 06:54:52;;;;;;;22.13;12.32;;;7.40;99.90;;;;;;5109109;28;20042;-82
2023/04/07 06:57:17;;;;;;;21.25;12.23;;;7.40;99.90;;;;;;5109078;28;20031;-82
2023/04/07 06:59:43;;;;;;;22.10;12.45;;;7.40;99.90;;;;;;5109104;28;20062;-82
2023/04/07 07:02:09;;;;;;;22.93;13.27;;;7.50;99.90;;;;;;5109074;28;20468;-83
2023/04/07 07:04:34;;;;;;;22.63;13.40;;;7.50;99.90;;;;;;5109009;28;20281;-82
2023/04/07 07:07:01;;;;;;;23.08;13.57;;;7.60;99.90;;;;;;5108812;28;20043;-83
2023/04/07 07:09:26;;;;;;;24.92;13.65;;;7.60;99.90;;;;;;5075041;28;20051;-82
2023/04/07 07:11:52;;;;;;;23.77;12.23;;;7.60;99.90;;;;;;5092490;28;20031;-82
2023/04/07 07:14:18;;;;;;;23.00;13.85;;;7.60;99.90;;;;;;5092098;28;20300;-81
2023/04/07 07:16:44;;;;;;;23.90;13.65;;;7.70;99.90;;;;;;5091789;28;20040;-81
2023/04/07 07:19:10;;;;;;;21.67;12.35;;;7.70;99.90;;;;;;5109066;28;20039;-81
2023/04/07 07:21:36;;;;;;;21.55;12.80;;;7.70;99.90;;;;;;5108485;28;20079;-80
2023/04/07 07:24:01;;;;;;;16.13;9.25;;;7.70;99.90;;;;;;5108597;28;20043;-81
2023/04/07 07:26:27;;;;;;;22.10;12.13;;;7.80;99.90;;;;;;5108413;28;20047;-81
2023/04/07 07:28:53;;;;;;;19.42;12.32;;;7.80;99.90;;;;;;5108554;28;20046;-81
2023/04/07 07:31:19;;;;;;;23.77;12.30;;;7.90;99.90;;;;;;5108569;28;20069;-80
2023/04/07 07:33:47;;;;;;;20.60;11.52;;;7.90;99.90;;;;;;5108101;28;20039;-80
2023/04/07 07:36:13;;;;;;;21.50;12.07;;;7.90;99.90;;;;;;5091717;28;20036;-79
2023/04/07 07:38:39;;;;;;;18.92;10.75;;;8.10;99.90;;;;;;5090962;28;20044;-82
2023/04/07 07:41:08;;;;;;;20.08;11.48;;;8.00;99.90;;;;;;5074665;28;20041;-82
2023/04/07 07:43:34;;;;;;;16.42;9.88;;;8.10;99.90;;;;;;5108181;28;20043;-80
2023/04/07 07:45:59;;;;;;;18.65;11.32;;;8.10;99.90;;;;;;5091630;28;20035;-80
2023/04/07 07:48:25;;;;;;;17.65;11.02;;;8.10;99.90;;;;;;5091496;28;20054;-80
2023/04/07 07:50:51;;;;;;;17.87;11.20;;;8.10;99.90;;;;;;5090973;28;20468;-80
2023/04/07 07:53:17;;;;;;;18.45;11.13;;;8.10;99.90;;;;;;5108464;28;20804;-82
2023/04/07 07:55:45;;;;;;;16.02;9.85;;;8.20;99.90;;;;;;5108333;28;20048;-82
2023/04/07 07:58:10;;;;;;;17.58;10.32;;;8.20;99.90;;;;;;5095459;28;20110;-82
2023/04/07 08:00:36;;;;;;;17.05;11.00;;;8.20;99.90;;;;;;5077823;28;20115;-83
2023/04/07 08:03:02;;;;;;;16.17;8.60;;;8.20;99.90;;;;;;5112126;28;20040;-82
2023/04/07 08:05:27;;;;;;;17.20;10.20;;;8.30;99.90;;;;;;5094703;28;20047;-82
2023/04/07 08:07:54;;;;;;;15.48;9.00;;;8.20;99.90;;;;;;5092682;28;20043;-82
2023/04/07 08:10:20;;;;;;;17.73;11.13;;;8.30;99.90;;;;;;5112049;28;20444;-83
2023/04/07 08:12:46;;;;;;;15.63;9.63;;;8.30;99.90;;;;;;5111794;28;20506;-83
2023/04/07 08:15:12;;;;;;;19.00;9.40;;;8.20;99.90;;;;;;5111875;28;20035;-82
2023/04/07 08:17:37;;;;;;;15.98;10.75;;;8.30;99.90;;;;;;5094738;28;20043;-82
2023/04/07 08:20:05;;;;;;;16.83;10.27;;;8.30;99.90;;;;;;5111644;28;20042;-82
2023/04/07 08:22:30;;;;;;;16.35;9.18;;;8.40;99.90;;;;;;5094596;28;20039;-82
2023/04/07 08:24:56;;;;;;;14.90;9.17;;;8.40;99.90;;;;;;5111919;28;20076;-82
2023/04/07 08:27:21;;;;;;;15.70;9.27;;;8.40;99.90;;;;;;5111701;28;20314;-83
2023/04/07 08:30:01;;;;;;;16.67;9.90;;;8.40;99.90;;;;;;5077740;28;20273;-81
2023/04/07 08:32:37;;;;;;;17.02;9.13;;;8.50;99.90;;;;;;5094052;28;20044;-82
2023/04/07 08:35:03;;;;;;;15.98;9.48;;;8.50;99.90;;;;;;5093834;28;20115;-82
2023/04/07 08:37:30;;;;;;;13.35;8.57;;;8.50;99.90;;;;;;5093906;28;20035;-81
2023/04/07 08:39:56;;;;;;;17.48;9.55;;;8.40;99.90;;;;;;5093777;28;20438;-81
2023/04/07 08:42:27;;;;;;;16.13;9.38;;;8.60;99.90;;;;;;5094072;28;20048;-81
2023/04/07 08:44:56;;;;;;;15.40;8.65;;;8.60;99.90;;;;;;5110857;28;20512;-82
2023/04/07 08:47:24;;;;;;;14.57;9.45;;;8.60;99.90;;;;;;5110917;28;20393;-82
2023/04/07 08:49:52;;;;;;;15.73;10.02;;;8.60;99.90;;;;;;5110165;28;20039;-82
2023/04/07 08:52:22;;;;;;;16.13;8.93;;;8.60;99.90;;;;;;5093765;28;20031;-82
2023/04/07 08:54:48;;;;;;;16.42;9.48;;;8.70;99.90;;;;;;5110336;28;20031;-82
2023/04/07 08:57:15;;;;;;;16.23;9.70;;;8.70;99.90;;;;;;5110457;28;20105;-82
2023/04/07 08:59:44;;;;;;;15.52;8.73;;;8.80;99.90;;;;;;5110279;28;20038;-82
2023/04/07 09:02:10;;;;;;;19.40;10.32;;;8.80;99.90;;;;;;5110625;28;20036;-83
2023/04/07 09:04:36;;;;;;;18.65;10.68;;;8.90;99.90;;;;;;5110832;28;20615;-83
2023/04/07 09:07:02;;;;;;;19.27;11.38;;;9.00;99.90;;;;;;5110351;28;20031;-83
2023/04/07 09:09:29;;;;;;;19.40;11.38;;;9.00;99.90;;;;;;5093894;28;20399;-83
2023/04/07 09:11:55;;;;;;;17.90;11.55;;;9.10;99.90;;;;;;5093070;28;20031;-82
2023/04/07 09:14:21;;;;;;;18.02;11.32;;;9.20;99.90;;;;;;5109653;28;20411;-82
2023/04/07 09:16:46;;;;;;;20.02;11.50;;;9.20;99.90;;;;;;5110210;28;20031;-83
2023/04/07 09:19:12;;;;;;;20.55;11.50;;;9.20;99.90;;;;;;5093825;28;20027;-83
2023/04/07 09:21:51;;;;;;;15.93;10.00;;;9.20;99.90;;;;;;5076641;28;20035;-83
2023/04/07 09:24:30;;;;;;;18.77;10.93;;;9.40;99.90;;;;;;5110502;28;20277;-83
2023/04/07 09:27:16;;;;;;;16.40;10.13;;;9.40;99.90;;;;;;5110309;28;20036;-83
2023/04/07 09:29:43;;;;;;;20.08;11.90;;;9.50;99.90;;;;;;5110143;28;20042;-82
2023/04/07 09:32:10;;;;;;;18.52;10.80;;;9.60;99.90;;;;;;5093487;28;20084;-83
2023/04/07 09:34:39;;;;;;;21.85;13.27;;;9.70;99.90;;;;;;5109982;28;20035;-83
2023/04/07 09:37:07;;;;;;;19.25;12.07;;;9.70;99.90;;;;;;5092969;28;20042;-83
2023/04/07 09:39:32;;;;;;;18.75;11.40;;;9.70;99.90;;;;;;5093244;28;20055;-83
2023/04/07 09:42:05;;;;;;;20.55;11.65;;;9.70;99.90;;;;;;5093635;28;20040;-82
2023/04/07 09:44:40;;;;;;;19.55;11.18;;;9.70;99.90;;;;;;5108290;28;20122;-82
2023/04/07 09:47:06;;;;;;;17.42;10.68;;;9.70;99.90;;;;;;5076448;28;20461;-83
2023/04/07 09:49:32;;;;;;;14.15;8.25;;;9.60;99.90;;;;;;5110099;28;20114;-82
2023/04/07 09:52:09;;;;;;;15.00;9.27;;;9.70;99.90;;;;;;5074647;28;20047;-83
2023/04/07 09:54:41;;;;;;;18.10;10.40;;;9.70;99.90;;;;;;5094266;28;20039;-83
2023/04/07 09:57:09;;;;;;;15.43;9.43;;;9.60;99.90;;;;;;5093178;28;20048;-83
2023/04/07 09:59:37;;;;;;;16.65;10.35;;;9.70;99.90;;;;;;5110022;28;20031;-83
2023/04/07 10:02:04;;;;;;;16.80;9.95;;;9.70;99.90;;;;;;5110381;28;20102;-82
2023/04/07 10:04:30;;;;;;;16.38;10.40;;;9.70;99.90;;;;;;5076709;28;20096;-83
2023/04/07 10:06:57;;;;;;;16.27;9.98;;;9.70;99.90;;;;;;5093086;28;20465;-82
2023/04/07 10:09:25;;;;;;;17.13;10.35;;;9.70;99.90;;;;;;5093453;28;20084;-82
2023/04/07 10:11:52;;;;;;;16.58;9.75;;;9.70;99.90;;;;;;5110191;28;20031;-82
2023/04/07 10:14:20;;;;;;;14.55;8.82;;;9.60;99.90;;;;;;5109738;28;20047;-83
2023/04/07 10:16:47;;;;;;;15.18;8.10;;;9.60;99.90;;;;;;5092068;28;20118;-83
2023/04/07 10:19:13;;;;;;;14.85;8.63;;;9.70;99.90;;;;;;5076047;28;20032;-82
2023/04/07 10:21:41;;;;;;;14.23;8.43;;;9.90;99.90;;;;;;5110215;28;20032;-83
2023/04/07 10:24:25;;;;;;;12.68;7.82;;;9.90;99.90;;;;;;5110373;28;20122;-82
2023/04/07 10:26:55;;;;;;;10.60;6.90;;;10.10;99.90;;;;;;5109811;28;20043;-83
2023/04/07 10:29:22;;;;;;;12.40;7.30;;;10.10;99.90;;;;;;5109805;28;20050;-83
2023/04/07 10:31:48;;;;;;;9.27;6.13;;;10.20;99.90;;;;;;5109408;28;20043;-83
2023/04/07 10:34:15;;;;;;;10.43;6.57;;;10.20;99.90;;;;;;5109635;28;20114;-83
2023/04/07 10:37:07;;;;;;;12.57;6.50;;;10.30;99.90;;;;;;5109376;28;20040;-83
2023/04/07 10:39:34;;;;;;;12.05;6.68;;;10.40;99.90;;;;;;5109946;28;20547;-83
2023/04/07 10:42:00;;;;;;;8.23;5.55;;;10.40;99.90;;;;;;5076131;28;20031;-83
2023/04/07 10:44:45;;;;;;;10.75;6.60;;;10.40;99.90;;;;;;5110271;28;20035;-81
2023/04/07 10:47:13;;;;;;;10.77;6.78;;;10.50;99.90;;;;;;5110094;28;20048;-82
2023/04/07 10:49:38;;;;;;;12.40;7.63;;;10.60;99.90;;;;;;5093258;28;20042;-81
2023/04/07 10:52:10;;;;;;;14.27;8.43;;;10.70;99.90;;;;;;5093108;28;20411;-79
2023/04/07 10:54:36;;;;;;;13.55;8.52;;;10.60;99.90;;;;;;5109640;28;20051;-84
2023/04/07 10:57:02;;;;;;;15.18;9.23;;;10.70;99.90;;;;;;5109350;28;20081;-82
2023/04/07 10:59:31;;;;;;;12.90;8.43;;;10.80;99.90;;;;;;5092832;28;20040;-82
2023/04/07 11:02:12;;;;;;;12.70;7.85;;;10.80;99.90;;;;;;5109267;28;20307;-82
2023/04/07 11:04:44;;;;;;;14.27;8.73;;;10.90;99.90;;;;;;5109539;28;20114;-80
2023/04/07 11:07:10;;;;;;;13.18;8.23;;;10.90;99.90;;;;;;5090912;28;20035;-81
2023/04/07 11:09:36;;;;;;;;;;;11.20;99.90;;;;;;5076530;28;20040;-80
2023/04/07 11:12:03;;;;;;;12.10;8.63;;;11.50;99.90;;;;;;5109381;28;19961;-81
2023/04/07 11:14:30;;;;;;;11.88;8.13;;;12.00;99.90;;;;;;5109557;28;20105;-80
2023/04/07 11:16:58;;;;;;;12.95;8.00;;;12.20;99.90;;;;;;5109140;28;20047;-81
2023/04/07 11:19:24;;;;;;;13.98;8.20;;;12.10;99.90;;;;;;5109442;28;20399;-81
2023/04/07 11:21:50;;;;;;;11.40;7.82;;;11.90;99.90;;;;;;5092291;28;20119;-80
2023/04/07 11:24:38;;;;;;;11.50;6.90;;;11.70;99.90;;;;;;5109227;28;20135;-80
2023/04/07 11:27:03;;;;;;;14.18;7.53;;;11.50;99.90;;;;;;5108854;28;20042;-80
2023/04/07 11:29:33;;;;;;;11.20;7.10;;;11.50;99.90;;;;;;5110909;28;20044;-80
2023/04/07 11:32:01;;;;;;;12.18;8.27;;;11.60;99.90;;;;;;5112668;28;20040;-81
2023/04/07 11:34:31;;;;;;;10.65;7.55;;;11.70;99.90;;;;;;5113171;28;20418;-80
2023/04/07 11:37:16;;;;;;;9.85;7.03;;;12.50;99.90;;;;;;5112494;28;20050;-81
2023/04/07 11:39:45;;;;;;;8.25;6.03;;;12.00;99.90;;;;;;5112021;28;20051;-80
2023/04/07 11:42:10;;;;;;;9.82;6.22;;;12.20;99.90;;;;;;5094576;28;20031;-80
2023/04/07 11:44:45;;;;;;;7.45;5.55;;;12.20;99.90;;;;;;5113321;28;20088;-81
2023/04/07 11:47:10;;;;;;;8.77;5.47;;;12.40;99.90;;;;;;5113145;28;20107;-81
2023/04/07 11:49:45;;;;;;;7.60;5.15;;;12.30;99.90;;;;;;5096291;28;20507;-81
2023/04/07 11:52:10;;;;;;;13.52;5.40;;;12.20;99.90;;;;;;5112685;28;20054;-80
2023/04/07 11:54:41;;;;;;;7.07;4.43;;;12.20;99.90;;;;;;5112508;28;20048;-80
2023/04/07 11:57:09;;;;;;;7.75;5.75;;;12.20;99.90;;;;;;5111609;28;20081;-82
2023/04/07 11:59:35;;;;;;;7.88;5.18;;;12.30;99.90;;;;;;5112850;28;20069;-82
2023/04/07 12:02:03;;;;;;;8.43;5.78;;;12.30;99.90;;;;;;5095223;28;20040;-82
2023/04/07 12:04:30;;;;;;;9.75;6.57;;;12.40;99.90;;;;;;5094323;28;20134;-82
2023/04/07 12:07:10;;;;;;;9.50;6.40;;;12.40;99.90;;;;;;5111257;28;20044;-80
2023/04/07 12:09:36;;;;;;;10.55;5.88;;;12.60;99.90;;;;;;5111481;28;20491;-81
2023/04/07 12:12:06;;;;;;;9.65;6.20;;;12.90;99.90;;;;;;5093925;28;20071;-81
2023/04/07 12:14:33;;;;;;;9.55;6.55;;;13.10;99.90;;;;;;5111831;28;20127;-81
2023/04/07 12:17:00;;;;;;;9.50;5.82;;;13.60;99.90;;;;;;5111086;28;20040;-81
2023/04/07 12:19:27;;;;;;;8.95;6.40;;;14.20;99.90;;;;;;5112467;28;20051;-81
2023/04/07 12:21:54;;;;;;;9.10;6.10;;;14.70;99.90;;;;;;5095035;28;20035;-81
2023/04/07 12:24:20;;;;;;;9.25;6.75;;;15.10;99.90;;;;;;5111757;28;20134;-80
2023/04/07 12:26:47;;;;;;;9.75;5.43;;;15.50;99.90;;;;;;5094853;28;20127;-80
2023/04/07 12:29:12;;;;;;;7.75;6.18;;;15.90;99.90;;;;;;5112760;28;20093;-81
2023/04/07 12:31:38;;;;;;;7.35;6.03;;;15.90;99.90;;;;;;5095406;28;20040;-80
2023/04/07 12:34:04;;;;;;;6.85;5.47;;;15.80;99.90;;;;;;5094190;28;20074;-80
2023/04/07 12:36:30;;;;;;;7.85;5.53;;;16.30;99.90;;;;;;5094813;28;20088;-80
2023/04/07 12:38:56;;;;;;;9.88;5.72;;;16.50;99.90;;;;;;5111154;28;20062;-80
2023/04/07 12:41:23;;;;;;;7.38;5.55;;;16.10;99.90;;;;;;5094499;28;20100;-80